Kaprifol — 5BXX2 — position and weather

sailwx.info

Track history (hours):
 
Tides and Currents Weather Stations Pressure Air Temp Water Temp Dewpoint Dewpoint Depression Visibility Wind Speed Wind Dir Waves Ship Positions

Kaprifol

Last reported at 2016-Aug-27 19:33 UTC. Time now 2016-Aug-29 03:43 UTC.
Position N 59°17' E 004°59'.

Length 90 m; draft 5.2 m.

Type: Tanker. MMSI: 210445000.

Date/timePositionNaut miles runAvg speedWind from/ knotsBaromVisibWave heightAir tempDewpointWater temp
2016-Aug-27 19:33N 59°17' E 004°59'10 9.9
2016-Aug-27 18:33N 59°08' E 005°08'1010.1
2016-Aug-27 17:34N 59°06' E 005°27'9 9.4
2016-Aug-27 16:33N 59°01' E 005°43'3 3.2
2016-Aug-27 15:29N 58°58' E 005°45'0 0.0
2016-Aug-27 14:32N 58°58' E 005°45'0 0.0
2016-Aug-27 13:32N 58°58' E 005°45'0 0.0
2016-Aug-27 12:32N 58°58' E 005°45'0 0.0
2016-Aug-27 11:32N 58°58' E 005°45'0 0.0
2016-Aug-27 10:32N 58°58' E 005°45'0 0.0
2016-Aug-27 09:32N 58°58' E 005°45'0 0.1
2016-Aug-27 08:33N 58°58' E 005°46'5 5.0
2016-Aug-27 07:33N 59°02' E 005°38'7 7.3
2016-Aug-27 06:33N 58°55' E 005°33'2010.0
2016-Aug-27 04:33N 58°36' E 005°22'2010.2
2016-Aug-27 02:33N 58°17' E 005°36'2110.8
2016-Aug-27 00:33N 58°02' E 006°06'1010.3
2016-Aug-26 23:33N 57°55' E 006°21'1010.6
2016-Aug-26 22:33N 57°49' E 006°36'1010.1
2016-Aug-26 21:33N 57°46' E 006°54'106 9.5
2016-Aug-26 10:26N 57°48' E 010°12'910.3
2016-Aug-26 09:33N 57°48' E 010°29'10 9.1
2016-Aug-26 08:29N 57°44' E 010°47'1111.5
2016-Aug-26 07:33N 57°34' E 010°45'1212.1
2016-Aug-26 06:33N 57°21' E 010°44'3911.6
2016-Aug-26 03:11N 56°44' E 011°01'711.6
2016-Aug-26 02:33N 56°37' E 011°03'1111.4
2016-Aug-26 01:33N 56°25' E 011°06'1211.6
2016-Aug-26 00:33N 56°14' E 011°06'1211.8
2016-Aug-25 23:33N 56°02' E 011°06'1512.3
2016-Aug-25 22:19N 55°50' E 010°50'1012.2
2016-Aug-25 21:29N 55°40' E 010°47'1212.1
2016-Aug-25 20:31N 55°29' E 010°55'1111.7
2016-Aug-25 19:33N 55°18' E 011°03'1110.5
2016-Aug-25 18:33N 55°10' E 011°13'1110.8
2016-Aug-25 17:33N 55°03' E 011°28'1110.9
2016-Aug-25 16:33N 55°01' E 011°46'5 0.8
2016-Aug-25 10:32N 54°59' E 011°53'0 0.0
2016-Aug-25 07:32N 54°59' E 011°53'0 0.0
2016-Aug-25 03:32N 54°59' E 011°53'0 0.0
2016-Aug-25 02:32N 54°59' E 011°53'0 0.0
2016-Aug-25 01:32N 54°59' E 011°53'0 0.0
2016-Aug-25 00:32N 54°59' E 011°53'0 0.0
2016-Aug-24 23:32N 54°59' E 011°53'0 0.0
2016-Aug-24 22:05N 54°59' E 011°53'0 0.0
2016-Aug-24 21:29N 54°59' E 011°53'4 4.7
2016-Aug-24 20:33N 54°56' E 011°59'9 8.8
2016-Aug-24 19:34N 54°50' E 012°11'1010.3
2016-Aug-24 18:34N 54°40' E 012°15'1010.1
2016-Aug-24 17:33N 54°30' E 012°15'10 9.8
2016-Aug-24 16:33N 54°21' E 012°07'10 9.8
2016-Aug-24 15:32N 54°11' E 012°05'3 2.5
2016-Aug-24 14:30N 54°10' E 012°08'0 0.0
2016-Aug-24 13:24N 54°10' E 012°08'0 0.0
2016-Aug-24 12:33N 54°10' E 012°08'0 0.0
2016-Aug-24 11:33N 54°10' E 012°08'0 0.0
2016-Aug-24 10:33N 54°10' E 012°08'0 0.0
2016-Aug-24 09:33N 54°10' E 012°08'0 0.0
2016-Aug-24 08:30N 54°10' E 012°08'0 0.0
2016-Aug-24 07:33N 54°10' E 012°08'0 0.0
2016-Aug-24 06:27N 54°10' E 012°08'9 5.0
2016-Aug-24 04:34N 54°18' E 012°01'1111.4
2016-Aug-24 03:34N 54°28' E 012°11'1111.2
2016-Aug-24 02:33N 54°39' E 012°12'1110.0
2016-Aug-24 01:27N 54°51' E 012°10'7 7.1
2016-Aug-24 00:30N 54°54' E 012°01'6 6.1
2016-Aug-23 23:32N 54°59' E 011°53'0 0.0
2016-Aug-23 21:05N 54°59' E 011°53'0 0.0
2016-Aug-23 20:29N 54°59' E 011°53'0 0.0
2016-Aug-23 19:05N 54°59' E 011°53'0 0.0
2016-Aug-23 18:11N 54°59' E 011°53'0 0.0
2016-Aug-23 17:29N 54°59' E 011°53'0 0.0
2016-Aug-23 16:23N 54°59' E 011°53'0 0.0
2016-Aug-23 14:14N 54°59' E 011°53'0 0.0
2016-Aug-23 12:07N 54°59' E 011°53'13 8.2
2016-Aug-23 10:33N 54°50' E 012°11'1110.5
2016-Aug-23 09:33N 54°40' E 012°15'1010.0
2016-Aug-23 08:32N 54°30' E 012°15'1010.0
2016-Aug-23 07:33N 54°21' E 012°08'10 9.9
2016-Aug-23 06:33N 54°11' E 012°05'3 0.8
2016-Aug-23 03:14N 54°10' E 012°08'0 0.0
2016-Aug-23 01:32N 54°10' E 012°08'0 0.0
2016-Aug-22 23:14N 54°10' E 012°08'0 0.0
2016-Aug-22 22:14N 54°10' E 012°08'0 0.0
2016-Aug-22 21:32N 54°10' E 012°08'1 0.5
2016-Aug-22 20:33N 54°10' E 012°08'5 4.7
2016-Aug-22 19:33N 54°13' E 012°03'2 2.2
2016-Aug-22 18:30N 54°14' E 011°59'0 0.2
2016-Aug-22 17:33N 54°14' E 011°59'8 8.0
2016-Aug-22 16:33N 54°21' E 012°06'1111.5
2016-Aug-22 15:34N 54°32' E 012°13'1110.6
2016-Aug-22 14:33N 54°40' E 012°24'22 9.7
2016-Aug-22 12:18N 54°58' E 012°45'710.0
2016-Aug-22 11:33N 55°06' E 012°42'1110.5
2016-Aug-22 10:33N 55°16' E 012°38'1010.2
2016-Aug-22 09:33N 55°26' E 012°40'1010.0
2016-Aug-22 08:33N 55°36' E 012°42'10 9.9
2016-Aug-22 07:34N 55°46' E 012°40'1110.5
2016-Aug-22 06:33N 55°56' E 012°38'9 8.9
2016-Aug-22 05:33N 56°05' E 012°35'10 9.5
2016-Aug-22 04:33N 56°10' E 012°21'2210.4
2016-Aug-22 02:27N 56°29' E 011°59'1010.8
2016-Aug-22 01:34N 56°38' E 011°54'1110.6
2016-Aug-22 00:33N 56°48' E 011°50'1110.7
2016-Aug-21 23:33N 56°58' E 011°44'1010.4
2016-Aug-21 22:33N 57°08' E 011°37'1010.2
2016-Aug-21 21:33N 57°18' E 011°31'1010.3
2016-Aug-21 20:33N 57°27' E 011°24'1010.3
2016-Aug-21 19:34N 57°37' E 011°20'1110.8
2016-Aug-21 18:33N 57°48' E 011°14'1211.2
2016-Aug-21 17:31N 57°59' E 011°08'1111.4
2016-Aug-21 16:34N 58°10' E 011°03'1210.9
2016-Aug-21 15:30N 58°21' E 010°58'1010.3
2016-Aug-21 14:33N 58°30' E 010°52'10 9.9
2016-Aug-21 13:34N 58°40' E 010°47'1010.1
2016-Aug-21 12:33N 58°49' E 010°42'1010.3
2016-Aug-21 11:33N 58°59' E 010°37'9 9.2
2016-Aug-21 10:34N 59°08' E 010°37'10 9.8
2016-Aug-21 09:34N 59°18' E 010°35'1010.0
2016-Aug-21 08:34N 59°28' E 010°34'4 3.6
2016-Aug-21 07:33N 59°28' E 010°41'0 0.0
2016-Aug-21 06:33N 59°28' E 010°41'0 0.0
2016-Aug-21 05:33N 59°28' E 010°41'0 0.0
2016-Aug-21 04:33N 59°28' E 010°41'0 0.0
2016-Aug-21 03:33N 59°28' E 010°41'0 0.0
2016-Aug-21 02:33N 59°28' E 010°41'0 0.0
2016-Aug-21 01:33N 59°28' E 010°41'0 0.0
2016-Aug-21 00:33N 59°28' E 010°41'0 0.0
2016-Aug-20 23:33N 59°28' E 010°41'0 0.0
2016-Aug-20 22:33N 59°28' E 010°41'0 0.0
2016-Aug-20 21:33N 59°28' E 010°41'0 0.0
2016-Aug-20 20:33N 59°28' E 010°41'0 0.0
2016-Aug-20 19:33N 59°28' E 010°41'0 0.0
2016-Aug-20 18:29N 59°28' E 010°41'0 0.0
2016-Aug-20 17:32N 59°28' E 010°41'3 3.2
2016-Aug-20 16:33N 59°31' E 010°37'1010.2
2016-Aug-20 15:33N 59°21' E 010°36'1110.6
2016-Aug-20 14:33N 59°10' E 010°40'9 9.1
2016-Aug-20 13:33N 59°02' E 010°47'1110.8
2016-Aug-20 12:33N 58°57' E 010°29'1110.9
2016-Aug-20 11:33N 58°51' E 010°11'51 9.9
2016-Aug-20 06:23N 58°18' E 008°56'8 9.0
2016-Aug-20 05:33N 58°13' E 008°45'9 8.8
2016-Aug-20 04:33N 58°08' E 008°32'39 8.9
2016-Aug-20 00:09N 57°54' E 007°22'6 9.5
2016-Aug-19 23:33N 57°55' E 007°11'10 9.9
2016-Aug-19 22:33N 57°58' E 006°54'1110.7
2016-Aug-19 21:33N 58°02' E 006°36'1010.1
2016-Aug-19 20:32N 58°09' E 006°21'9 9.1
2016-Aug-19 19:33N 58°14' E 006°07'9 8.8
2016-Aug-19 18:33N 58°20' E 005°54'10 9.5
2016-Aug-19 17:31N 58°26' E 005°40'9 9.7
2016-Aug-19 16:33N 58°34' E 005°32'1010.4
2016-Aug-19 15:34N 58°44' E 005°25'1010.3
2016-Aug-19 14:33N 58°54' E 005°32'9 8.5
2016-Aug-19 13:33N 59°02' E 005°38'5 5.1
2016-Aug-19 12:31N 58°58' E 005°45'0 0.0
2016-Aug-19 11:31N 58°58' E 005°45'0 0.0
2016-Aug-19 10:28N 58°58' E 005°45'0 0.0
2016-Aug-19 09:34N 58°58' E 005°45'0 0.0
2016-Aug-19 08:33N 58°58' E 005°45'0 0.0
2016-Aug-19 07:30N 58°58' E 005°45'0 0.0
2016-Aug-19 06:33N 58°58' E 005°45'0 0.0
2016-Aug-19 05:33N 58°58' E 005°45'0 0.0
2016-Aug-19 04:33N 58°58' E 005°45'2 2.3
2016-Aug-19 03:33N 59°00' E 005°48'6 6.1
2016-Aug-19 02:33N 59°02' E 005°37'7 6.7
2016-Aug-19 01:33N 58°56' E 005°33'9 8.7
2016-Aug-19 00:33N 58°48' E 005°25'8 8.1
2016-Aug-18 23:33N 58°41' E 005°18'8 8.1
2016-Aug-18 22:33N 58°33' E 005°13'7 6.8
2016-Aug-18 21:33N 58°27' E 005°17'131 8.5
2016-Aug-18 06:04N 56°16' E 005°16'7310.7
2016-Aug-17 23:19N 55°03' E 005°09'910.9
2016-Aug-17 22:31N 54°55' E 005°09'  
Track history (hours):
 
Tides and Currents Weather Stations Pressure Air Temp Water Temp Dewpoint Dewpoint Depression Visibility Wind Speed Wind Dir Waves Ship Positions

Kaprifol

Last reported at 2016-Aug-27 19:33 UTC. Time now 2016-Aug-29 03:43 UTC.
Position N 59°17' E 004°59'.

Length 90 m; draft 5.2 m.

Type: Tanker. MMSI: 210445000.

Date/timePositionNaut miles runAvg speedWind from/ knotsBaromVisibWave heightAir tempDewpointWater temp
2016-Aug-27 19:33N 59°17' E 004°59'10 9.9
2016-Aug-27 18:33N 59°08' E 005°08'1010.1
2016-Aug-27 17:34N 59°06' E 005°27'9 9.4
2016-Aug-27 16:33N 59°01' E 005°43'3 3.2
2016-Aug-27 15:29N 58°58' E 005°45'0 0.0
2016-Aug-27 14:32N 58°58' E 005°45'0 0.0
2016-Aug-27 13:32N 58°58' E 005°45'0 0.0
2016-Aug-27 12:32N 58°58' E 005°45'0 0.0
2016-Aug-27 11:32N 58°58' E 005°45'0 0.0
2016-Aug-27 10:32N 58°58' E 005°45'0 0.0
2016-Aug-27 09:32N 58°58' E 005°45'0 0.1
2016-Aug-27 08:33N 58°58' E 005°46'5 5.0
2016-Aug-27 07:33N 59°02' E 005°38'7 7.3
2016-Aug-27 06:33N 58°55' E 005°33'2010.0
2016-Aug-27 04:33N 58°36' E 005°22'2010.2
2016-Aug-27 02:33N 58°17' E 005°36'2110.8
2016-Aug-27 00:33N 58°02' E 006°06'1010.3
2016-Aug-26 23:33N 57°55' E 006°21'1010.6
2016-Aug-26 22:33N 57°49' E 006°36'1010.1
2016-Aug-26 21:33N 57°46' E 006°54'106 9.5
2016-Aug-26 10:26N 57°48' E 010°12'910.3
2016-Aug-26 09:33N 57°48' E 010°29'10 9.1
2016-Aug-26 08:29N 57°44' E 010°47'1111.5
2016-Aug-26 07:33N 57°34' E 010°45'1212.1
2016-Aug-26 06:33N 57°21' E 010°44'3911.6
2016-Aug-26 03:11N 56°44' E 011°01'711.6
2016-Aug-26 02:33N 56°37' E 011°03'1111.4
2016-Aug-26 01:33N 56°25' E 011°06'1211.6
2016-Aug-26 00:33N 56°14' E 011°06'1211.8
2016-Aug-25 23:33N 56°02' E 011°06'1512.3
2016-Aug-25 22:19N 55°50' E 010°50'1012.2
2016-Aug-25 21:29N 55°40' E 010°47'1212.1
2016-Aug-25 20:31N 55°29' E 010°55'1111.7
2016-Aug-25 19:33N 55°18' E 011°03'1110.5
2016-Aug-25 18:33N 55°10' E 011°13'1110.8
2016-Aug-25 17:33N 55°03' E 011°28'1110.9
2016-Aug-25 16:33N 55°01' E 011°46'5 0.8
2016-Aug-25 10:32N 54°59' E 011°53'0 0.0
2016-Aug-25 07:32N 54°59' E 011°53'0 0.0
2016-Aug-25 03:32N 54°59' E 011°53'0 0.0
2016-Aug-25 02:32N 54°59' E 011°53'0 0.0
2016-Aug-25 01:32N 54°59' E 011°53'0 0.0
2016-Aug-25 00:32N 54°59' E 011°53'0 0.0
2016-Aug-24 23:32N 54°59' E 011°53'0 0.0
2016-Aug-24 22:05N 54°59' E 011°53'0 0.0
2016-Aug-24 21:29N 54°59' E 011°53'4 4.7
2016-Aug-24 20:33N 54°56' E 011°59'9 8.8
2016-Aug-24 19:34N 54°50' E 012°11'1010.3
2016-Aug-24 18:34N 54°40' E 012°15'1010.1
2016-Aug-24 17:33N 54°30' E 012°15'10 9.8
2016-Aug-24 16:33N 54°21' E 012°07'10 9.8
2016-Aug-24 15:32N 54°11' E 012°05'3 2.5
2016-Aug-24 14:30N 54°10' E 012°08'0 0.0
2016-Aug-24 13:24N 54°10' E 012°08'0 0.0
2016-Aug-24 12:33N 54°10' E 012°08'0 0.0
2016-Aug-24 11:33N 54°10' E 012°08'0 0.0
2016-Aug-24 10:33N 54°10' E 012°08'0 0.0
2016-Aug-24 09:33N 54°10' E 012°08'0 0.0
2016-Aug-24 08:30N 54°10' E 012°08'0 0.0
2016-Aug-24 07:33N 54°10' E 012°08'0 0.0
2016-Aug-24 06:27N 54°10' E 012°08'9 5.0
2016-Aug-24 04:34N 54°18' E 012°01'1111.4
2016-Aug-24 03:34N 54°28' E 012°11'1111.2
2016-Aug-24 02:33N 54°39' E 012°12'1110.0
2016-Aug-24 01:27N 54°51' E 012°10'7 7.1
2016-Aug-24 00:30N 54°54' E 012°01'6 6.1
2016-Aug-23 23:32N 54°59' E 011°53'0 0.0
2016-Aug-23 21:05N 54°59' E 011°53'0 0.0
2016-Aug-23 20:29N 54°59' E 011°53'0 0.0
2016-Aug-23 19:05N 54°59' E 011°53'0 0.0
2016-Aug-23 18:11N 54°59' E 011°53'0 0.0
2016-Aug-23 17:29N 54°59' E 011°53'0 0.0
2016-Aug-23 16:23N 54°59' E 011°53'0 0.0
2016-Aug-23 14:14N 54°59' E 011°53'0 0.0
2016-Aug-23 12:07N 54°59' E 011°53'13 8.2
2016-Aug-23 10:33N 54°50' E 012°11'1110.5
2016-Aug-23 09:33N 54°40' E 012°15'1010.0
2016-Aug-23 08:32N 54°30' E 012°15'1010.0
2016-Aug-23 07:33N 54°21' E 012°08'10 9.9
2016-Aug-23 06:33N 54°11' E 012°05'3 0.8
2016-Aug-23 03:14N 54°10' E 012°08'0 0.0
2016-Aug-23 01:32N 54°10' E 012°08'0 0.0
2016-Aug-22 23:14N 54°10' E 012°08'0 0.0
2016-Aug-22 22:14N 54°10' E 012°08'0 0.0
2016-Aug-22 21:32N 54°10' E 012°08'1 0.5
2016-Aug-22 20:33N 54°10' E 012°08'5 4.7
2016-Aug-22 19:33N 54°13' E 012°03'2 2.2
2016-Aug-22 18:30N 54°14' E 011°59'0 0.2
2016-Aug-22 17:33N 54°14' E 011°59'8 8.0
2016-Aug-22 16:33N 54°21' E 012°06'1111.5
2016-Aug-22 15:34N 54°32' E 012°13'1110.6
2016-Aug-22 14:33N 54°40' E 012°24'22 9.7
2016-Aug-22 12:18N 54°58' E 012°45'710.0
2016-Aug-22 11:33N 55°06' E 012°42'1110.5
2016-Aug-22 10:33N 55°16' E 012°38'1010.2
2016-Aug-22 09:33N 55°26' E 012°40'1010.0
2016-Aug-22 08:33N 55°36' E 012°42'10 9.9
2016-Aug-22 07:34N 55°46' E 012°40'1110.5
2016-Aug-22 06:33N 55°56' E 012°38'9 8.9
2016-Aug-22 05:33N 56°05' E 012°35'10 9.5
2016-Aug-22 04:33N 56°10' E 012°21'2210.4
2016-Aug-22 02:27N 56°29' E 011°59'1010.8
2016-Aug-22 01:34N 56°38' E 011°54'1110.6
2016-Aug-22 00:33N 56°48' E 011°50'1110.7
2016-Aug-21 23:33N 56°58' E 011°44'1010.4
2016-Aug-21 22:33N 57°08' E 011°37'1010.2
2016-Aug-21 21:33N 57°18' E 011°31'1010.3
2016-Aug-21 20:33N 57°27' E 011°24'1010.3
2016-Aug-21 19:34N 57°37' E 011°20'1110.8
2016-Aug-21 18:33N 57°48' E 011°14'1211.2
2016-Aug-21 17:31N 57°59' E 011°08'1111.4
2016-Aug-21 16:34N 58°10' E 011°03'1210.9
2016-Aug-21 15:30N 58°21' E 010°58'1010.3
2016-Aug-21 14:33N 58°30' E 010°52'10 9.9
2016-Aug-21 13:34N 58°40' E 010°47'1010.1
2016-Aug-21 12:33N 58°49' E 010°42'1010.3
2016-Aug-21 11:33N 58°59' E 010°37'9 9.2
2016-Aug-21 10:34N 59°08' E 010°37'10 9.8
2016-Aug-21 09:34N 59°18' E 010°35'1010.0
2016-Aug-21 08:34N 59°28' E 010°34'4 3.6
2016-Aug-21 07:33N 59°28' E 010°41'0 0.0
2016-Aug-21 06:33N 59°28' E 010°41'0 0.0
2016-Aug-21 05:33N 59°28' E 010°41'0 0.0
2016-Aug-21 04:33N 59°28' E 010°41'0 0.0
2016-Aug-21 03:33N 59°28' E 010°41'0 0.0
2016-Aug-21 02:33N 59°28' E 010°41'0 0.0
2016-Aug-21 01:33N 59°28' E 010°41'0 0.0
2016-Aug-21 00:33N 59°28' E 010°41'0 0.0
2016-Aug-20 23:33N 59°28' E 010°41'0 0.0
2016-Aug-20 22:33N 59°28' E 010°41'0 0.0
2016-Aug-20 21:33N 59°28' E 010°41'0 0.0
2016-Aug-20 20:33N 59°28' E 010°41'0 0.0
2016-Aug-20 19:33N 59°28' E 010°41'0 0.0
2016-Aug-20 18:29N 59°28' E 010°41'0 0.0
2016-Aug-20 17:32N 59°28' E 010°41'3 3.2
2016-Aug-20 16:33N 59°31' E 010°37'1010.2
2016-Aug-20 15:33N 59°21' E 010°36'1110.6
2016-Aug-20 14:33N 59°10' E 010°40'9 9.1
2016-Aug-20 13:33N 59°02' E 010°47'1110.8
2016-Aug-20 12:33N 58°57' E 010°29'1110.9
2016-Aug-20 11:33N 58°51' E 010°11'51 9.9
2016-Aug-20 06:23N 58°18' E 008°56'8 9.0
2016-Aug-20 05:33N 58°13' E 008°45'9 8.8
2016-Aug-20 04:33N 58°08' E 008°32'39 8.9
2016-Aug-20 00:09N 57°54' E 007°22'6 9.5
2016-Aug-19 23:33N 57°55' E 007°11'10 9.9
2016-Aug-19 22:33N 57°58' E 006°54'1110.7
2016-Aug-19 21:33N 58°02' E 006°36'1010.1
2016-Aug-19 20:32N 58°09' E 006°21'9 9.1
2016-Aug-19 19:33N 58°14' E 006°07'9 8.8
2016-Aug-19 18:33N 58°20' E 005°54'10 9.5
2016-Aug-19 17:31N 58°26' E 005°40'9 9.7
2016-Aug-19 16:33N 58°34' E 005°32'1010.4
2016-Aug-19 15:34N 58°44' E 005°25'1010.3
2016-Aug-19 14:33N 58°54' E 005°32'9 8.5
2016-Aug-19 13:33N 59°02' E 005°38'5 5.1
2016-Aug-19 12:31N 58°58' E 005°45'0 0.0
2016-Aug-19 11:31N 58°58' E 005°45'0 0.0
2016-Aug-19 10:28N 58°58' E 005°45'0 0.0
2016-Aug-19 09:34N 58°58' E 005°45'0 0.0
2016-Aug-19 08:33N 58°58' E 005°45'0 0.0
2016-Aug-19 07:30N 58°58' E 005°45'0 0.0
2016-Aug-19 06:33N 58°58' E 005°45'0 0.0
2016-Aug-19 05:33N 58°58' E 005°45'0 0.0
2016-Aug-19 04:33N 58°58' E 005°45'2 2.3
2016-Aug-19 03:33N 59°00' E 005°48'6 6.1
2016-Aug-19 02:33N 59°02' E 005°37'7 6.7
2016-Aug-19 01:33N 58°56' E 005°33'9 8.7
2016-Aug-19 00:33N 58°48' E 005°25'8 8.1
2016-Aug-18 23:33N 58°41' E 005°18'8 8.1
2016-Aug-18 22:33N 58°33' E 005°13'7 6.8
2016-Aug-18 21:33N 58°27' E 005°17'131 8.5
2016-Aug-18 06:04N 56°16' E 005°16'7310.7
2016-Aug-17 23:19N 55°03' E 005°09'910.9
2016-Aug-17 22:31N 54°55' E 005°09'  

Dump ship's entire track history